»·PEaware :: UAL576 KJAC-KASE

UAL576 :: KJAC-KASE

FLIGHT INFORMATION

Flight Status: Arrived
Operator:
United Airlines
More flights by this operator :: More flights under this callsign
Pilot: Anonymous 8274 (8274)
Aircraft: BOEING 737-200
(B732)
More flights by this aircraft type
Origin: KJAC Jackson Hole
United States
Destination: KASE Aspen-Pitkin Co/Sardy
United States
More flights between these airports :: More routes between these airports
Route: +GEYSR5 IDA MLD TCH J15 JNC V484 ICIES V361 PITMN
File this flight plan on PilotEdge
Remarks: Scenic routing setting up for Roaring Fork over Capitol PEAK
Altitude:
(Current/Filed)
29,000ft
Speed:
(Current/Filed)
440kts
Departed: 08-Nov-19 08:45 PM
Arrived: 08-Nov-19 10:13 PM
Distance/Time
Traveled:
316nm/1:28
Distance/Time
To Go:
Arrived

Flight Plot

Page will automatically refresh every two minutes.

Flight plan parsing failed; only flown route is shown


Map Options




Map Legend


Flown Route
Filed Route
Departure Airport
Arrival Airport
Navaid (VOR, NDB)
Fix

Horizontal Profiles

Position Reports

Time Latitude Longitude Heading Altitude Ground
Speed
08-Nov-19 20:09 43.603093 -110.737254 109 6428ft 0kts
08-Nov-19 20:10 43.603093 -110.737254 109 6428ft 0kts
08-Nov-19 20:11 43.603093 -110.737254 109 6428ft 0kts
08-Nov-19 20:12 43.603093 -110.737254 109 6428ft 0kts
08-Nov-19 20:13 43.603093 -110.737254 109 6428ft 0kts
08-Nov-19 20:14 43.603093 -110.737254 109 6428ft 0kts
08-Nov-19 20:15 43.603093 -110.737254 109 6428ft 0kts
08-Nov-19 20:16 43.603093 -110.737254 109 6428ft 0kts
08-Nov-19 20:17 43.603093 -110.737254 109 6428ft 0kts
08-Nov-19 20:18 43.603093 -110.737254 109 6428ft 0kts
08-Nov-19 20:19 43.603093 -110.737254 109 6428ft 0kts
08-Nov-19 20:20 43.603093 -110.737254 109 6428ft 0kts
08-Nov-19 20:21 43.603093 -110.737254 109 6428ft 0kts
08-Nov-19 20:22 43.603093 -110.737254 109 6428ft 0kts
08-Nov-19 20:23 43.603093 -110.737254 109 6428ft 0kts
08-Nov-19 20:24 43.603093 -110.737254 109 6428ft 0kts
08-Nov-19 20:25 43.603093 -110.737254 109 6428ft 0kts
08-Nov-19 20:26 43.603093 -110.737254 109 6428ft 0kts
08-Nov-19 20:27 43.603093 -110.737254 109 6428ft 0kts
08-Nov-19 20:28 43.603093 -110.737254 109 6428ft 0kts
08-Nov-19 20:29 43.603093 -110.737254 109 6428ft 0kts
08-Nov-19 20:30 43.603093 -110.737254 109 6428ft 0kts
08-Nov-19 20:31 43.603093 -110.737254 109 6428ft 0kts
08-Nov-19 20:32 43.603093 -110.737254 109 6428ft 0kts
08-Nov-19 20:33 43.603093 -110.737254 109 6428ft 0kts
08-Nov-19 20:34 43.603139 -110.737430 109 6429ft 2kts
08-Nov-19 20:35 43.603383 -110.738075 181 6428ft 1kts
08-Nov-19 20:36 43.603454 -110.738048 204 6428ft 0kts
08-Nov-19 20:37 43.603404 -110.738076 201 6428ft 4kts
08-Nov-19 20:38 43.601432 -110.739029 199 6428ft 8kts
08-Nov-19 20:39 43.599095 -110.740293 235 6428ft 0kts
08-Nov-19 20:40 43.599095 -110.740293 235 6428ft 0kts
08-Nov-19 20:41 43.599095 -110.740293 235 6428ft 0kts
08-Nov-19 20:42 43.599023 -110.740549 262 6428ft 5kts
08-Nov-19 20:43 43.599831 -110.741421 20 6428ft 4kts
08-Nov-19 20:44 43.625333 -110.728502 21 6827ft 157kts
08-Nov-19 20:45 43.668898 -110.706899 20 8211ft 194kts
08-Nov-19 20:46 43.717430 -110.650618 29 9849ft 257kts
08-Nov-19 20:47 43.786299 -110.596388 26 11761ft 311kts
08-Nov-19 20:48 43.863702 -110.531581 26 14168ft 336kts
08-Nov-19 20:49 43.943057 -110.461680 26 16775ft 341kts
08-Nov-19 20:50 44.023383 -110.393682 23 19313ft 337kts
08-Nov-19 20:51 44.101831 -110.330885 6 21127ft 330kts
08-Nov-19 20:52 44.163363 -110.390915 281 22164ft 336kts
08-Nov-19 20:53 44.118173 -110.512971 238 23416ft 381kts
08-Nov-19 20:54 44.054116 -110.624891 242 25481ft 364kts
08-Nov-19 20:55 43.999239 -110.737820 246 26719ft 365kts
08-Nov-19 20:56 43.953387 -110.863039 252 27827ft 367kts
08-Nov-19 20:57 43.913676 -110.997253 254 28431ft 383kts
08-Nov-19 20:58 43.859431 -111.114356 224 29253ft 410kts
08-Nov-19 20:59 43.802206 -111.241814 260 29419ft 401kts
08-Nov-19 21:00 43.761748 -111.390432 254 29422ft 419kts
08-Nov-19 21:01 43.718689 -111.539931 254 29418ft 414kts
08-Nov-19 21:02 43.670852 -111.673377 245 29420ft 412kts
08-Nov-19 21:03 43.613226 -111.808994 247 29420ft 406kts
08-Nov-19 21:04 43.559915 -111.946952 249 29414ft 412kts
08-Nov-19 21:05 43.506362 -112.088996 241 29396ft 424kts
08-Nov-19 21:06 43.393508 -112.148138 185 29403ft 468kts
08-Nov-19 21:07 43.262694 -112.131739 181 29401ft 472kts
08-Nov-19 21:09 43.133228 -112.143002 192 29396ft 466kts
08-Nov-19 21:10 43.005695 -112.170625 200 29382ft 461kts
08-Nov-19 21:11 42.889978 -112.221591 201 29381ft 462kts
08-Nov-19 21:12 42.764702 -112.262944 197 29384ft 464kts
08-Nov-19 21:13 42.638049 -112.298037 194 29402ft 465kts
08-Nov-19 21:14 42.511193 -112.333465 194 29423ft 466kts
08-Nov-19 21:15 42.383921 -112.366718 194 29421ft 468kts
08-Nov-19 21:16 42.257339 -112.406509 198 29421ft 467kts
08-Nov-19 21:17 42.129871 -112.441765 191 29421ft 472kts
08-Nov-19 21:18 42.001514 -112.476965 197 29416ft 471kts
08-Nov-19 21:19 41.890973 -112.516505 198 29409ft 471kts
08-Nov-19 21:20 41.768373 -112.503982 155 29415ft 479kts
08-Nov-19 21:21 41.647853 -112.428993 161 29412ft 479kts
08-Nov-19 21:22 41.521558 -112.373342 162 29412ft 479kts
08-Nov-19 21:23 41.394812 -112.318416 162 29410ft 480kts
08-Nov-19 21:24 41.268022 -112.263790 162 29402ft 480kts
08-Nov-19 21:25 41.150647 -112.180052 148 29404ft 480kts
08-Nov-19 21:26 41.040145 -112.082159 149 29403ft 480kts
08-Nov-19 21:27 40.922527 -111.998337 154 29412ft 480kts
08-Nov-19 21:27 40.827439 -111.945344 154 29415ft 480kts
08-Nov-19 21:29 40.747675 -111.783450 113 29430ft 464kts
08-Nov-19 21:29 40.684097 -111.668042 123 29438ft 468kts
08-Nov-19 21:30 40.607195 -111.528941 122 29439ft 469kts
08-Nov-19 21:31 40.531494 -111.389055 122 29439ft 469kts
08-Nov-19 21:33 40.445198 -111.227476 122 29439ft 470kts
08-Nov-19 21:33 40.382494 -111.110688 122 29439ft 471kts
08-Nov-19 21:34 40.306653 -110.970944 123 29444ft 472kts
08-Nov-19 21:35 40.229961 -110.831407 123 29438ft 473kts
08-Nov-19 21:36 40.152627 -110.692147 123 29429ft 474kts
08-Nov-19 21:37 40.075050 -110.552671 123 29430ft 475kts
08-Nov-19 21:38 39.997332 -110.412813 123 29429ft 474kts
08-Nov-19 21:39 39.923738 -110.280252 123 29428ft 469kts
08-Nov-19 21:40 39.849502 -110.147146 124 29428ft 464kts
08-Nov-19 21:41 39.773267 -110.012221 124 29441ft 460kts
08-Nov-19 21:42 39.697272 -109.879432 124 29449ft 457kts
08-Nov-19 21:43 39.621117 -109.748021 124 29457ft 454kts
08-Nov-19 21:44 39.544873 -109.618069 124 29473ft 452kts
08-Nov-19 21:45 39.468401 -109.489310 125 29476ft 450kts
08-Nov-19 21:46 39.391765 -109.361829 125 29475ft 448kts
08-Nov-19 21:47 39.321499 -109.246279 126 29475ft 447kts
08-Nov-19 21:48 39.244059 -109.120383 126 29461ft 446kts
08-Nov-19 21:49 39.172326 -108.991156 118 29436ft 443kts
08-Nov-19 21:50 39.109900 -108.854150 117 29429ft 442kts
08-Nov-19 21:51 39.047972 -108.717721 117 29430ft 442kts
08-Nov-19 21:52 38.989013 -108.579435 109 29439ft 440kts
08-Nov-19 21:53 38.942100 -108.432505 111 29450ft 450kts
08-Nov-19 21:54 38.894013 -108.294790 111 29454ft 457kts
08-Nov-19 21:55 38.849821 -108.167784 111 29475ft 461kts
08-Nov-19 21:56 38.798362 -108.019000 111 28650ft 449kts
08-Nov-19 21:57 38.748586 -107.875252 111 26553ft 432kts
08-Nov-19 21:58 38.741159 -107.735600 52 24373ft 394kts
08-Nov-19 21:59 38.818117 -107.642409 35 22348ft 374kts
08-Nov-19 22:00 38.898315 -107.561044 34 20375ft 362kts
08-Nov-19 22:01 38.973111 -107.477120 39 18446ft 353kts
08-Nov-19 22:02 39.042625 -107.391573 41 17023ft 329kts
08-Nov-19 22:03 39.098661 -107.318387 42 16994ft 302kts
08-Nov-19 22:04 39.130259 -107.236977 90 16330ft 299kts
08-Nov-19 22:05 39.120811 -107.130803 94 15491ft 288kts
08-Nov-19 22:06 39.139407 -107.044710 59 15505ft 215kts
08-Nov-19 22:07 39.162616 -106.978921 61 14274ft 196kts
08-Nov-19 22:08 39.181602 -106.912521 61 12641ft 196kts
08-Nov-19 22:09 39.205668 -106.852259 53 10876ft 184kts
08-Nov-19 22:10 39.249368 -106.855266 336 9355ft 155kts
08-Nov-19 22:11 39.250656 -106.881837 163 8226ft 146kts
08-Nov-19 22:12 39.218272 -106.866508 160 7782ft 40kts
08-Nov-19 22:13 39.218481 -106.865419 339 7782ft 9kts
08-Nov-19 22:14 39.219459 -106.865132 78 7782ft 0kts

Navigation Log

Ident Type
Flight plan parsing failed, navigation log unavailable